Time;durP1;ratioP1;P1;durP2;ratioP2;P2;SDS_P1;SDS_P2;PMS_P1;PMS_P2;Temp;Humidity;BMP_temperature;BMP_pressure;BME280_temperature;BME280_humidity;BME280_pressure;Samples;Min_cycle;Max_cycle;Signal;HPM_P1;HPM_P2
2022/09/09 00:02:22;;;;;;;4.68;1.08;;;;;;;17.22;78.44;100069.34;5072417;28;20059;-78
2022/09/09 00:06:02;;;;;;;4.25;0.95;;;;;;;17.00;79.02;100058.97;5072360;28;20138;-79
2022/09/09 00:09:20;;;;;;;4.28;1.02;;;;;;;16.96;79.27;100053.97;5082208;28;20051;-78
2022/09/09 00:12:33;;;;;;;8.00;1.00;;;;;;;16.99;79.21;100059.97;5091723;28;20457;-78
2022/09/09 00:15:42;;;;;;;4.80;1.35;;;;;;;17.07;78.57;100062.75;5079542;28;20089;-79
2022/09/09 00:19:09;;;;;;;2.97;0.60;;;;;;;16.90;79.11;100058.94;5076449;28;20525;-78
2022/09/09 00:22:13;;;;;;;3.10;0.88;;;;;;;16.65;80.44;100060.16;5051069;28;20475;-79
2022/09/09 00:25:34;;;;;;;3.92;0.70;;;;;;;16.59;80.72;100053.63;5071911;28;20509;-78
2022/09/09 00:29:29;;;;;;;5.65;0.90;;;;;;;16.58;81.01;100048.47;5072236;28;20043;-78
2022/09/09 00:32:35;;;;;;;3.90;0.80;;;;;;;16.67;80.05;100052.97;5072004;28;20039;-78
2022/09/09 00:35:43;;;;;;;3.70;0.82;;;;;;;16.59;80.25;100050.13;5074801;28;20035;-78
2022/09/09 00:38:59;;;;;;;4.32;0.63;;;;;;;16.71;78.74;100054.38;5092413;28;20112;-78
2022/09/09 00:42:19;;;;;;;4.65;1.00;;;;;;;16.66;78.86;100053.94;5092595;28;20043;-78
2022/09/09 00:46:00;;;;;;;6.45;0.98;;;;;;;16.68;78.93;100042.25;5071075;28;20526;-78
2022/09/09 00:49:13;;;;;;;6.82;0.85;;;;;;;16.33;80.89;100054.97;5071965;28;20526;-78
2022/09/09 00:52:50;;;;;;;5.65;1.15;;;;;;;16.45;80.98;100054.78;5072666;28;20059;-79
2022/09/09 00:56:13;;;;;;;7.45;0.70;;;;;;;16.45;80.72;100051.31;5090826;28;20170;-79
2022/09/09 00:59:36;;;;;;;3.13;0.70;;;;;;;16.63;79.27;100054.19;5095639;28;20051;-78
2022/09/09 01:02:59;;;;;;;9.98;0.98;;;;;;;16.51;79.82;100064.81;5095749;28;20047;-78
2022/09/09 01:06:31;;;;;;;5.15;0.70;;;;;;;16.66;79.13;100067.13;5042865;28;20070;-78
2022/09/09 01:09:44;;;;;;;7.65;1.05;;;;;;;16.47;79.12;100073.13;5055483;28;20415;-78
2022/09/09 01:12:52;;;;;;;4.60;0.75;;;;;;;16.49;79.07;100066.75;5042820;28;20099;-78
2022/09/09 01:16:09;;;;;;;5.20;1.38;;;;;;;16.26;80.03;100055.47;5043346;28;20120;-80
2022/09/09 01:19:39;;;;;;;7.93;1.17;;;;;;;16.52;78.87;100055.09;5058395;28;20408;-78
2022/09/09 01:23:13;;;;;;;5.60;0.70;;;;;;;16.55;78.76;100056.63;5057427;28;20059;-78
2022/09/09 01:26:26;;;;;;;6.57;1.45;;;;;;;16.46;79.31;100050.31;5084918;28;20047;-78
2022/09/09 01:29:33;;;;;;;4.40;1.00;;;;;;;16.22;80.01;100056.72;5083104;28;20085;-78
2022/09/09 01:32:47;;;;;;;4.50;0.82;;;;;;;16.22;80.49;100053.25;5092742;28;20394;-78
2022/09/09 01:36:00;;;;;;;3.65;0.75;;;;;;;16.17;80.23;100058.03;5086966;28;20051;-78
2022/09/09 01:39:10;;;;;;;3.92;0.80;;;;;;;16.09;80.14;100047.31;5082547;28;20530;-78
2022/09/09 01:42:16;;;;;;;7.40;1.27;;;;;;;16.24;79.92;100059.19;5080893;28;20526;-78
2022/09/09 01:45:21;;;;;;;4.97;0.88;;;;;;;16.32;79.34;100058.59;5063173;28;20047;-78
2022/09/09 01:48:26;;;;;;;5.75;1.17;;;;;;;16.37;78.77;100067.78;5062620;28;20119;-78
2022/09/09 01:51:41;;;;;;;3.08;0.50;;;;;;;16.27;79.24;100072.13;5081648;28;20043;-78
2022/09/09 01:54:47;;;;;;;2.88;0.70;;;;;;;16.37;78.62;100067.78;5080763;28;20135;-79
2022/09/09 01:58:27;;;;;;;4.75;0.63;;;;;;;16.13;79.59;100072.47;5077153;28;20048;-78
2022/09/09 02:01:56;;;;;;;4.88;1.10;;;;;;;16.22;79.79;100069.06;5072584;28;20411;-78
2022/09/09 02:05:27;;;;;;;5.90;0.90;;;;;;;16.40;78.96;100072.81;5061068;28;20044;-78
2022/09/09 02:08:55;;;;;;;4.93;1.00;;;;;;;16.43;78.19;100076.97;5080331;28;20613;-78
2022/09/09 02:12:21;;;;;;;4.80;0.90;;;;;;;16.33;78.56;100063.72;5094538;28;20093;-78
2022/09/09 02:15:34;;;;;;;2.80;0.60;;;;;;;16.30;78.75;100066.59;5081735;28;20411;-78
2022/09/09 02:18:47;;;;;;;4.28;0.65;;;;;;;16.26;78.47;100057.28;5073933;28;20532;-78
2022/09/09 02:21:54;;;;;;;4.53;1.05;;;;;;;16.26;78.28;100071.31;5073349;28;20098;-78
2022/09/09 02:25:00;;;;;;;5.45;1.00;;;;;;;16.18;78.82;100067.66;5073787;28;20093;-78
2022/09/09 02:28:09;;;;;;;8.85;1.20;;;;;;;16.25;78.60;100068.81;5070278;28;20078;-79
2022/09/09 02:31:17;;;;;;;7.35;0.88;;;;;;;16.13;78.77;100067.19;5094023;28;20050;-78
2022/09/09 02:34:24;;;;;;;4.82;1.25;;;;;;;16.12;78.70;100065.53;5076144;28;20086;-78
2022/09/09 02:37:35;;;;;;;7.78;1.00;;;;;;;16.02;79.02;100066.28;5061320;28;20549;-78
2022/09/09 02:40:38;;;;;;;4.40;0.75;;;;;;;16.11;78.54;100061.19;5062261;28;20044;-78
2022/09/09 02:43:43;;;;;;;4.43;0.63;;;;;;;16.07;78.75;100054.50;5088703;28;20055;-78
2022/09/09 02:47:21;;;;;;;4.13;0.65;;;;;;;16.00;78.88;100052.38;5083229;28;20043;-79
2022/09/09 02:50:37;;;;;;;6.45;0.65;;;;;;;16.00;78.38;100052.38;5070412;28;20402;-78
2022/09/09 02:53:53;;;;;;;2.92;0.80;;;;;;;16.02;79.10;100053.09;5060709;28;20051;-78
2022/09/09 02:57:19;;;;;;;3.70;0.57;;;;;;;15.98;79.15;100056.09;5072367;28;20181;-78
2022/09/09 03:00:27;;;;;;;4.40;0.85;;;;;;;16.06;78.60;100058.94;5073612;28;20054;-79
2022/09/09 03:03:36;;;;;;;4.05;0.95;;;;;;;16.17;78.34;100056.25;5053103;28;20039;-78
2022/09/09 03:06:45;;;;;;;6.15;0.90;;;;;;;16.09;78.95;100050.78;5067058;28;20398;-78
2022/09/09 03:09:55;;;;;;;10.07;1.00;;;;;;;16.01;79.14;100053.19;5081085;28;20437;-79
2022/09/09 03:13:02;;;;;;;4.85;0.60;;;;;;;15.90;79.55;100054.09;5081513;28;20043;-78
2022/09/09 03:16:10;;;;;;;4.85;1.15;;;;;;;15.95;79.10;100056.34;5081274;28;20043;-79
2022/09/09 03:19:20;;;;;;;6.28;0.75;;;;;;;16.09;78.33;100053.41;5081593;28;20120;-78
2022/09/09 03:22:25;;;;;;;4.55;0.57;;;;;;;16.00;78.63;100055.00;5069803;28;20047;-78
2022/09/09 03:25:28;;;;;;;3.42;0.50;;;;;;;16.01;78.76;100061.94;5094034;28;20096;-78
2022/09/09 03:28:43;;;;;;;6.22;0.85;;;;;;;15.97;78.84;100064.97;5083327;28;20047;-78
2022/09/09 03:31:46;;;;;;;5.10;0.90;;;;;;;15.96;79.05;100063.31;5082030;28;20035;-78
2022/09/09 03:34:50;;;;;;;5.38;1.00;;;;;;;15.86;79.40;100063.22;5096472;28;20085;-78
2022/09/09 03:37:55;;;;;;;2.20;0.60;;;;;;;15.86;79.56;100057.97;5083203;28;20403;-78
2022/09/09 03:41:00;;;;;;;6.15;0.88;;;;;;;15.93;79.54;100069.66;5082957;28;20051;-78
2022/09/09 03:44:04;;;;;;;4.43;0.70;;;;;;;15.97;79.37;100076.34;5085730;28;20047;-78
2022/09/09 03:47:13;;;;;;;4.90;1.00;;;;;;;16.00;79.24;100073.47;5082566;28;20042;-78
2022/09/09 03:50:50;;;;;;;;;;;;;;;;;;;;;
2022/09/09 03:54:22;;;;;;;8.38;1.05;;;;;;;15.94;79.87;100071.31;5093631;28;20070;-77
2022/09/09 03:57:26;;;;;;;4.13;0.50;;;;;;;15.87;80.03;100064.06;5081778;28;20054;-76
2022/09/09 04:00:31;;;;;;;2.60;0.50;;;;;;;15.97;80.01;100059.69;5080027;28;20055;-77
2022/09/09 04:03:36;;;;;;;4.00;0.80;;;;;;;15.96;80.30;100066.78;5092745;28;20070;-78
2022/09/09 04:06:40;;;;;;;3.85;0.50;;;;;;;16.00;80.02;100068.19;5092966;28;20092;-78
2022/09/09 04:09:44;;;;;;;2.70;0.70;;;;;;;16.03;79.99;100065.31;5080265;28;20063;-78
2022/09/09 04:12:48;;;;;;;3.30;0.70;;;;;;;16.04;79.67;100072.25;5093093;28;20411;-78
2022/09/09 04:15:54;;;;;;;3.13;0.65;;;;;;;16.14;79.54;100071.50;5080255;28;20046;-78
2022/09/09 04:18:59;;;;;;;3.17;0.57;;;;;;;16.16;79.54;100064.28;5081156;28;20100;-78
2022/09/09 04:22:04;;;;;;;7.55;1.15;;;;;;;16.11;79.88;100071.75;5072731;28;20047;-78
2022/09/09 04:25:07;;;;;;;3.25;0.70;;;;;;;16.09;80.05;100071.88;5072215;28;20038;-78
2022/09/09 04:28:14;;;;;;;5.80;1.00;;;;;;;16.14;79.89;100071.50;5075401;28;20048;-78
2022/09/09 04:31:23;;;;;;;4.53;1.05;;;;;;;15.97;80.66;100076.34;5076660;28;20047;-79
2022/09/09 04:34:31;;;;;;;5.00;0.75;;;;;;;16.01;80.02;100075.13;5077076;28;20530;-78
2022/09/09 04:37:39;;;;;;;5.07;0.70;;;;;;;15.96;80.17;100079.97;5054013;28;20086;-78
2022/09/09 05:05:25;;;;;;;;;;;;;;;;;;;;;
2022/09/09 05:14:43;;;;;;;5.25;0.70;;;;;;;15.49;83.14;100095.13;5062053;28;20105;-79
2022/09/09 05:19:06;;;;;;;6.47;0.77;;;;;;;15.29;84.37;100107.25;5061057;28;20047;-77
2022/09/09 05:23:52;;;;;;;3.75;0.50;;;;;;;15.20;84.93;100107.97;5024461;28;20102;-78
2022/09/09 05:29:00;;;;;;;10.10;0.85;;;;;;;15.32;84.95;100108.81;5003668;28;20524;-79
2022/09/09 05:38:45;;;;;;;4.45;0.90;;;;;;;15.47;84.77;100114.66;5053451;28;20520;-78
2022/09/09 05:42:13;;;;;;;5.78;1.15;;;;;;;15.47;84.94;100115.50;5039471;22;20633;-85
2022/09/09 05:45:30;;;;;;;5.28;0.90;;;;;;;15.57;84.97;100111.19;5060813;28;20082;-83
2022/09/09 05:48:50;;;;;;;14.13;1.25;;;;;;;15.79;83.81;100105.06;5058076;28;20077;-82
2022/09/09 05:51:57;;;;;;;3.63;0.80;;;;;;;15.70;84.22;100112.88;5058291;28;20083;-81
2022/09/09 05:55:04;;;;;;;3.75;0.70;;;;;;;15.91;83.45;100110.28;5047394;28;20059;-81
2022/09/09 05:58:09;;;;;;;3.95;0.88;;;;;;;15.74;84.29;100114.31;5071729;28;20387;-82
2022/09/09 06:01:42;;;;;;;4.07;1.00;;;;;;;15.73;84.49;100109.97;5070210;28;20046;-81
2022/09/09 06:04:59;;;;;;;7.18;1.00;;;;;;;15.58;85.32;100112.84;5058750;28;20086;-81
2022/09/09 06:09:09;;;;;;;3.55;0.60;;;;;;;15.72;84.78;100113.59;5058135;28;20047;-83
2022/09/09 06:12:53;;;;;;;4.88;0.75;;;;;;;15.63;85.53;100120.38;4988147;28;20046;-82
2022/09/09 06:16:00;;;;;;;5.90;1.10;;;;;;;15.54;85.80;100114.06;5014956;28;20047;-80
2022/09/09 06:19:05;;;;;;;5.85;0.90;;;;;;;15.73;85.40;100110.84;5059245;28;20047;-80
2022/09/09 06:22:41;;;;;;;2.88;0.70;;;;;;;15.70;85.55;100111.09;5057717;28;20071;-80
2022/09/09 06:25:45;;;;;;;7.82;1.00;;;;;;;15.75;84.57;100105.44;5068147;28;20051;-80
2022/09/09 06:28:54;;;;;;;3.90;0.98;;;;;;;15.96;83.35;100106.34;5056823;28;20577;-80
2022/09/09 06:32:10;;;;;;;5.50;0.80;;;;;;;16.24;82.81;100104.06;5056482;28;20035;-80
2022/09/09 06:35:13;;;;;;;5.50;1.10;;;;;;;16.14;82.40;100097.88;5056273;28;20043;-79
2022/09/09 06:38:18;;;;;;;4.45;0.93;;;;;;;16.11;84.19;100100.75;5057065;28;20052;-80
2022/09/09 06:41:30;;;;;;;7.00;1.70;;;;;;;16.25;84.26;100090.75;5057231;28;20296;-80
2022/09/09 06:44:36;;;;;;;3.50;0.60;;;;;;;16.44;82.54;100089.22;5057117;28;20112;-79
2022/09/09 06:47:45;;;;;;;5.50;0.73;;;;;;;16.67;81.94;100096.03;5043402;28;20330;-79
2022/09/09 06:51:09;;;;;;;8.25;1.05;;;;;;;16.66;81.92;100102.28;5041844;28;20048;-79
2022/09/09 06:54:13;;;;;;;6.43;0.80;;;;;;;16.63;81.96;100093.78;5041619;28;20453;-79
2022/09/09 06:57:29;;;;;;;6.45;1.00;;;;;;;16.68;82.69;100091.59;5056818;28;20042;-79
2022/09/09 07:00:34;;;;;;;8.98;1.20;;;;;;;16.83;81.99;100094.78;5055912;28;20047;-79
2022/09/09 07:03:42;;;;;;;4.57;0.80;;;;;;;16.98;81.44;100097.91;5055708;28;20605;-81
2022/09/09 07:07:15;;;;;;;;;;;;;;;;;;;;;
2022/09/09 07:10:30;;;;;;;5.35;1.15;;;;;;;17.14;80.93;100098.25;5055618;28;20093;-81
2022/09/09 07:13:34;;;;;;;6.15;1.27;;;;;;;17.19;81.58;100099.50;5068268;28;20427;-81
2022/09/09 07:16:42;;;;;;;4.95;1.42;;;;;;;17.29;78.04;100096.91;5055680;28;20048;-80
2022/09/09 07:19:47;;;;;;;4.90;1.00;;;;;;;17.39;74.30;100103.09;5056133;28;20059;-79
2022/09/09 07:22:55;;;;;;;7.00;1.20;;;;;;;17.46;74.06;100108.66;5068076;28;20097;-80
2022/09/09 07:25:59;;;;;;;4.68;0.82;;;;;;;17.68;73.31;100089.09;5055841;28;20518;-79
2022/09/09 07:29:03;;;;;;;8.95;1.63;;;;;;;17.79;72.11;100098.75;5056255;28;20035;-79
2022/09/09 07:32:07;;;;;;;4.65;1.25;;;;;;;17.86;70.99;100099.84;5056029;28;20043;-79
2022/09/09 07:35:14;;;;;;;8.48;1.67;;;;;;;17.93;70.02;100097.50;5056072;28;20059;-78
2022/09/09 07:38:20;;;;;;;5.72;1.25;;;;;;;17.85;70.38;100101.69;5055565;28;20044;-79
2022/09/09 07:41:25;;;;;;;5.25;0.95;;;;;;;17.73;69.95;100094.81;5055281;28;20047;-79
2022/09/09 07:44:28;;;;;;;6.45;1.20;;;;;;;17.66;69.63;100101.63;5055731;28;20113;-79
2022/09/09 07:47:45;;;;;;;4.65;1.20;;;;;;;17.73;68.57;100097.44;5055815;28;20094;-80
2022/09/09 07:50:48;;;;;;;4.90;1.08;;;;;;;17.74;67.26;100107.06;5055287;28;20078;-79
2022/09/09 07:53:57;;;;;;;4.80;1.05;;;;;;;17.87;66.82;100115.59;5055359;28;20062;-79
2022/09/09 07:57:04;;;;;;;6.07;1.15;;;;;;;18.07;65.81;100108.53;5055305;28;20047;-80
2022/09/09 08:00:45;;;;;;;7.40;1.27;;;;;;;18.15;63.56;100120.22;5067734;28;20124;-80
2022/09/09 08:04:13;;;;;;;7.38;1.20;;;;;;;18.14;63.28;100111.44;5055567;28;20406;-79
2022/09/09 08:08:40;;;;;;;5.13;0.82;;;;;;;18.33;63.19;100121.19;4995403;28;20130;-80
2022/09/09 08:12:37;;;;;;;7.15;1.10;;;;;;;18.48;62.60;100121.63;4949963;28;20516;-78
2022/09/09 08:15:41;;;;;;;7.65;1.90;;;;;;;18.43;62.94;100119.38;5018749;28;20208;-79
2022/09/09 08:18:45;;;;;;;4.28;1.00;;;;;;;18.46;63.22;100118.25;5055679;28;20102;-88
2022/09/09 08:21:51;;;;;;;4.68;1.10;;;;;;;18.49;63.37;100131.22;5056880;28;20047;-78
2022/09/09 08:24:56;;;;;;;5.72;1.27;;;;;;;18.42;63.31;100125.66;5057064;28;20114;-82
2022/09/09 08:28:01;;;;;;;6.63;1.30;;;;;;;18.55;63.35;100128.00;5056002;28;20048;-83
2022/09/09 08:31:09;;;;;;;5.95;1.40;;;;;;;18.61;63.08;100145.16;5055949;28;20059;-79
2022/09/09 08:34:13;;;;;;;8.52;1.60;;;;;;;18.60;62.88;100131.06;5057256;28;20047;-78
2022/09/09 08:37:35;;;;;;;7.10;1.50;;;;;;;18.62;62.59;100137.06;5045179;28;20041;-80
2022/09/09 08:45:19;;;;;;;5.90;1.38;;;;;;;18.51;61.47;100139.88;5049102;28;20099;-79
2022/09/09 08:49:08;;;;;;;5.45;0.73;;;;;;;18.78;60.15;100145.28;5036450;28;20063;-80
2022/09/09 08:56:35;;;;;;;6.57;1.17;;;;;;;19.01;58.76;100123.75;5057759;28;19918;-78
2022/09/09 08:59:42;;;;;;;8.32;1.50;;;;;;;19.04;58.08;100126.13;5044745;28;20089;-78
2022/09/09 09:03:30;;;;;;;7.63;1.02;;;;;;;18.86;58.26;100136.63;5066988;28;20139;-78
2022/09/09 09:07:02;;;;;;;3.70;1.00;;;;;;;18.94;56.46;100135.91;5054858;28;20507;-79
2022/09/09 09:10:38;;;;;;;;;;;;;;;;;;;;;
2022/09/09 09:13:50;;;;;;;;;;;;;;;18.83;55.78;100128.97;5028170;28;20056;-78
2022/09/09 09:17:21;;;;;;;5.03;0.95;;;;;;;18.82;56.28;100127.28;5038671;28;19934;-79
2022/09/09 09:21:02;;;;;;;5.80;1.70;;;;;;;18.81;55.76;100141.53;5055816;28;20052;-79
2022/09/09 09:24:27;;;;;;;4.90;1.08;;;;;;;18.88;55.71;100123.22;5059338;28;20054;-80
2022/09/09 09:27:40;;;;;;;5.82;1.33;;;;;;;18.95;56.19;100125.19;5059462;28;20466;-80
2022/09/09 09:30:55;;;;;;;10.65;1.63;;;;;;;18.91;55.16;100123.78;5059533;28;20039;-83
2022/09/09 09:34:00;;;;;;;6.68;1.17;;;;;;;19.14;54.91;100118.97;5058378;28;20116;-79
2022/09/09 09:37:19;;;;;;;6.03;1.13;;;;;;;19.27;54.92;100121.28;5060287;28;20098;-79
2022/09/09 09:40:24;;;;;;;4.95;1.00;;;;;;;19.30;54.63;100118.34;5060971;28;20375;-80
2022/09/09 09:55:53;;;;;;;6.40;1.30;;;;;;;19.37;53.36;100123.88;5086978;27;20381;-79
2022/09/09 09:58:58;;;;;;;6.10;1.25;;;;;;;19.54;53.16;100107.22;5098118;28;20055;-79
2022/09/09 10:02:18;;;;;;;6.00;1.52;;;;;;;19.50;53.32;100117.28;5086568;28;20047;-80
2022/09/09 10:05:29;;;;;;;4.15;0.82;;;;;;;19.51;53.42;100107.50;5086608;28;20502;-80
2022/09/09 10:09:20;;;;;;;7.18;1.27;;;;;;;19.38;51.98;100114.97;5086435;28;20135;-80
2022/09/09 10:12:39;;;;;;;7.20;1.90;;;;;;;19.42;53.87;100111.03;5086467;28;20128;-81
2022/09/09 10:16:11;;;;;;;4.05;1.10;;;;;;;19.57;53.28;100106.91;5086761;28;20063;-80
2022/09/09 10:19:32;;;;;;;3.85;0.80;;;;;;;19.63;53.61;100105.50;5086319;28;20110;-81
2022/09/09 10:22:35;;;;;;;6.32;1.42;;;;;;;19.79;50.23;100112.81;5086710;28;20545;-80
2022/09/09 10:26:02;;;;;;;4.95;1.25;;;;;;;19.69;50.15;100092.50;5086097;28;20600;-79
2022/09/09 10:29:17;;;;;;;4.57;0.88;;;;;;;19.70;50.54;100080.91;5099281;28;20117;-80
2022/09/09 10:32:34;;;;;;;4.65;1.33;;;;;;;19.90;49.46;100092.19;5094499;28;20131;-80
2022/09/09 10:35:49;;;;;;;4.38;0.95;;;;;;;19.96;49.80;100090.78;5086547;28;20081;-80
2022/09/09 10:38:59;;;;;;;4.03;1.00;;;;;;;20.13;48.85;100084.63;5086538;28;20093;-80
2022/09/09 10:42:18;;;;;;;7.03;1.70;;;;;;;20.30;48.42;100084.78;5085970;28;20101;-80
2022/09/09 10:45:34;;;;;;;6.25;1.00;;;;;;;20.31;48.06;100081.13;5085860;28;20054;-79
2022/09/09 10:48:47;;;;;;;4.55;0.90;;;;;;;20.30;48.64;100079.47;5085773;28;20102;-78
2022/09/09 10:52:05;;;;;;;5.72;1.42;;;;;;;20.37;48.52;100089.31;5084809;28;20047;-79
2022/09/09 10:55:21;;;;;;;5.03;0.82;;;;;;;20.16;49.59;100080.81;5078893;28;20127;-79
2022/09/09 10:58:59;;;;;;;5.60;0.75;;;;;;;20.25;49.33;100077.25;5071220;28;20052;-79
2022/09/09 11:02:29;;;;;;;8.73;0.88;;;;;;;20.08;48.67;100100.19;5072258;28;20094;-79
2022/09/09 11:05:41;;;;;;;4.95;0.70;;;;;;;20.08;48.75;100097.53;5072262;28;20045;-80
2022/09/09 11:08:47;;;;;;;3.58;0.75;;;;;;;20.01;49.22;100088.50;5072124;28;20090;-80
2022/09/09 11:12:02;;;;;;;2.88;1.00;;;;;;;20.04;49.59;100080.25;5071679;28;20776;-79
2022/09/09 11:15:31;;;;;;;3.83;0.70;;;;;;;20.23;49.91;100075.72;5072383;28;20437;-79
2022/09/09 11:18:39;;;;;;;5.10;0.95;;;;;;;20.40;49.56;100077.53;5071420;28;20042;-80
2022/09/09 11:21:51;;;;;;;7.85;1.08;;;;;;;20.61;49.21;100080.72;5071316;28;20101;-79
2022/09/09 11:25:25;;;;;;;5.40;1.05;;;;;;;20.57;48.40;100082.00;5071295;28;20059;-79
2022/09/09 11:28:52;;;;;;;2.58;0.88;;;;;;;20.56;48.24;100080.34;5068596;28;20112;-77
2022/09/09 11:32:29;;;;;;;4.40;0.80;;;;;;;20.60;48.11;100080.88;5070947;28;20043;-81
2022/09/09 11:35:49;;;;;;;3.50;0.70;;;;;;;20.57;48.33;100084.66;5051352;28;20067;-80
2022/09/09 11:39:01;;;;;;;3.17;0.80;;;;;;;20.66;48.62;100102.31;5068918;28;20641;-80
2022/09/09 11:42:14;;;;;;;3.23;0.83;;;;;;;20.61;48.44;100083.38;5068627;28;20115;-79
2022/09/09 11:45:27;;;;;;;2.72;0.60;;;;;;;20.65;48.46;100075.94;5070392;28;20508;-80
2022/09/09 11:48:45;;;;;;;4.70;1.02;;;;;;;20.98;47.17;100076.94;5071107;28;20098;-79
2022/09/09 11:51:49;;;;;;;3.95;1.10;;;;;;;20.84;47.78;100080.19;5071031;28;20047;-80
2022/09/09 11:54:55;;;;;;;4.05;0.52;;;;;;;20.82;48.30;100074.19;5070976;28;20055;-80
2022/09/09 11:58:00;;;;;;;4.18;0.90;;;;;;;20.70;48.58;100075.44;5069210;28;20057;-79
2022/09/09 12:01:27;;;;;;;7.32;1.55;;;;;;;20.67;48.41;100074.75;5069463;28;20145;-79
2022/09/09 12:04:39;;;;;;;5.60;1.50;;;;;;;20.67;48.31;100077.41;5069924;28;20407;-80
2022/09/09 12:07:55;;;;;;;;;;;;;;;20.92;48.10;100056.31;5069087;28;20126;-79
2022/09/09 12:11:04;;;;;;;5.57;1.15;;;;;;;20.87;47.95;100069.25;5068466;28;19923;-79
2022/09/09 12:14:22;;;;;;;5.60;1.20;;;;;;;20.62;48.86;100069.09;5070371;28;20653;-79
2022/09/09 12:17:28;;;;;;;5.97;1.25;;;;;;;20.35;49.51;100069.19;5071109;28;20067;-80
2022/09/09 12:20:38;;;;;;;3.88;0.93;;;;;;;20.29;50.08;100072.47;5070000;28;20071;-80
2022/09/09 12:23:50;;;;;;;6.18;1.35;;;;;;;20.13;50.55;100083.78;5070415;28;20045;-80
2022/09/09 12:27:19;;;;;;;3.78;1.13;;;;;;;20.30;50.03;100084.78;5068905;28;20070;-79
2022/09/09 12:30:32;;;;;;;5.07;1.20;;;;;;;20.83;49.59;100081.19;5069968;28;20415;-79
2022/09/09 12:33:43;;;;;;;4.88;0.90;;;;;;;21.35;49.13;100065.19;5069990;28;20094;-80
2022/09/09 12:41:32;;;;;;;3.42;0.80;;;;;;;21.88;47.52;100066.63;5050851;28;20047;-80
2022/09/09 12:45:15;;;;;;;6.55;1.25;;;;;;;22.51;46.84;100051.84;5051734;28;20286;-80
2022/09/09 12:48:20;;;;;;;5.15;1.10;;;;;;;22.42;46.35;100051.00;5067675;28;20144;-78
2022/09/09 12:51:33;;;;;;;3.25;0.80;;;;;;;22.94;45.72;100042.63;5069065;28;20047;-79
2022/09/09 12:54:37;;;;;;;4.22;0.98;;;;;;;23.75;42.88;100043.22;5067652;28;20055;-79
2022/09/09 12:57:51;;;;;;;4.18;1.00;;;;;;;25.49;39.79;100029.59;5068491;28;20048;-78
2022/09/09 13:00:57;;;;;;;3.92;1.20;;;;;;;28.31;33.65;100023.72;5067795;28;20048;-77
2022/09/09 13:04:01;;;;;;;6.93;1.50;;;;;;;29.44;31.90;100030.44;5064179;28;20042;-77
2022/09/09 13:07:09;;;;;;;4.70;1.45;;;;;;;34.08;25.15;100012.16;5067332;28;20645;-77
2022/09/09 13:10:26;;;;;;;4.35;1.45;;;;;;;36.79;21.39;100004.91;5068826;28;20079;-78
2022/09/09 13:13:39;;;;;;;2.63;0.90;;;;;;;35.45;23.14;99994.16;5049971;28;20043;-77
2022/09/09 13:16:59;;;;;;;4.13;0.95;;;;;;;27.93;33.41;100011.72;5048863;28;20060;-78
2022/09/09 13:20:06;;;;;;;3.00;0.95;;;;;;;28.32;33.13;100026.16;5067521;28;20052;-79
2022/09/09 13:23:26;;;;;;;7.03;1.20;;;;;;;25.83;36.81;100008.53;5066789;28;20047;-78
2022/09/09 13:26:44;;;;;;;4.38;1.38;;;;;;;26.34;36.53;100002.97;5048812;28;20052;-79
2022/09/09 13:29:56;;;;;;;2.33;0.85;;;;;;;30.92;28.25;99987.72;5056414;28;20490;-78
2022/09/09 13:33:20;;;;;;;5.70;1.48;;;;;;;30.33;28.78;99985.44;5068891;28;20055;-78
2022/09/09 13:36:34;;;;;;;3.20;0.85;;;;;;;30.35;28.81;99980.66;5069170;28;20079;-78
2022/09/09 13:39:37;;;;;;;4.03;1.20;;;;;;;27.52;33.07;99999.22;5066178;28;20129;-80
2022/09/09 13:42:42;;;;;;;4.72;1.65;;;;;;;25.36;36.98;99996.47;5064681;28;20067;-78
2022/09/09 13:45:54;;;;;;;2.38;0.80;;;;;;;24.11;40.11;100002.53;5067423;28;20075;-78
2022/09/09 13:49:02;;;;;;;4.33;1.10;;;;;;;23.43;41.21;100020.22;5067320;28;20052;-78
2022/09/09 13:52:13;;;;;;;3.03;0.75;;;;;;;22.72;43.46;100022.00;5065664;28;20066;-78
2022/09/09 13:55:18;;;;;;;16.73;1.35;;;;;;;21.96;46.13;100061.31;5065827;28;20101;-78
2022/09/09 13:58:23;;;;;;;5.78;0.70;;;;;;;21.55;48.98;100089.69;5066440;28;20094;-78
2022/09/09 14:01:27;;;;;;;15.02;1.50;;;;;;;20.64;54.19;100071.59;5066710;28;20047;-78
2022/09/09 14:04:30;;;;;;;3.40;0.50;;;;;;;20.37;52.96;100073.38;5068365;28;20094;-78
2022/09/09 14:07:34;;;;;;;6.05;0.52;;;;;;;22.91;47.54;100077.59;5068781;28;20079;-78
2022/09/09 14:10:44;;;;;;;6.63;1.33;;;;;;;25.00;43.70;100056.94;5066431;28;20194;-78
2022/09/09 14:13:53;;;;;;;2.75;0.80;;;;;;;28.11;37.44;100040.66;5067909;28;20036;-78
2022/09/09 14:16:56;;;;;;;2.85;1.10;;;;;;;30.87;33.42;100030.78;5068760;28;20043;-77
2022/09/09 14:20:00;;;;;;;6.75;1.10;;;;;;;31.73;31.01;100010.75;5068659;28;20094;-77
2022/09/09 14:23:03;;;;;;;2.70;0.90;;;;;;;33.31;29.03;100011.63;5048134;28;20052;-78
2022/09/09 14:26:07;;;;;;;3.10;1.00;;;;;;;33.60;29.01;100013.50;5048743;28;20134;-77
2022/09/09 14:29:12;;;;;;;3.50;1.00;;;;;;;32.88;29.06;100012.09;5047983;28;20503;-77
2022/09/09 14:32:16;;;;;;;4.95;1.08;;;;;;;32.27;30.92;100016.13;5053632;28;20084;-77
2022/09/09 14:35:19;;;;;;;2.63;0.85;;;;;;;31.60;31.65;100016.34;5052187;28;20141;-78
2022/09/09 14:38:34;;;;;;;3.30;0.88;;;;;;;30.09;33.59;100011.38;5051529;28;20056;-78
2022/09/09 14:41:42;;;;;;;3.70;0.98;;;;;;;30.80;33.77;100004.69;5070173;28;20171;-78
2022/09/09 14:44:47;;;;;;;2.92;0.63;;;;;;;29.23;37.17;100000.28;5072474;28;20039;-77
2022/09/09 14:48:17;;;;;;;3.03;0.70;;;;;;;25.22;44.04;100007.03;5071519;28;20121;-77
2022/09/09 14:51:23;;;;;;;5.10;0.80;;;;;;;24.20;47.09;100020.16;5071463;28;20063;-76
2022/09/09 14:54:26;;;;;;;4.57;0.93;;;;;;;23.29;49.69;100032.44;5071570;28;20043;-76
2022/09/09 14:57:30;;;;;;;4.40;1.15;;;;;;;22.43;52.36;100043.84;5071519;28;20467;-76
2022/09/09 15:00:34;;;;;;;3.55;0.80;;;;;;;22.00;53.46;100046.66;5072145;28;20491;-76
2022/09/09 15:03:39;;;;;;;3.45;0.65;;;;;;;21.27;55.88;100052.66;5071268;28;20126;-77
2022/09/09 15:06:46;;;;;;;3.17;0.90;;;;;;;21.16;56.46;100060.94;5071719;28;20132;-77
2022/09/09 15:09:50;;;;;;;4.80;1.65;;;;;;;20.85;57.34;100064.09;5071379;28;20047;-77
2022/09/09 15:12:54;;;;;;;6.72;1.00;;;;;;;20.78;57.67;100070.19;5071040;28;20541;-77
2022/09/09 15:16:25;;;;;;;3.95;0.85;;;;;;;20.86;58.60;100080.84;5070661;28;20078;-78
2022/09/09 15:19:54;;;;;;;4.53;1.25;;;;;;;20.93;58.46;100092.56;5070373;28;20113;-78
2022/09/09 15:22:58;;;;;;;4.35;1.63;;;;;;;20.92;58.76;100109.47;5050813;28;20060;-78
2022/09/09 15:26:28;;;;;;;5.75;1.90;;;;;;;20.66;60.59;100128.88;5050876;28;20052;-78
2022/09/09 15:29:32;;;;;;;14.48;1.70;;;;;;;19.46;71.83;100137.13;5064491;28;20067;-78
2022/09/09 15:32:36;;;;;;;4.43;1.05;;;;;;;19.00;70.55;100152.06;5070293;28;20478;-77
2022/09/09 15:35:39;;;;;;;5.07;1.25;;;;;;;18.88;72.29;100145.25;5071052;28;20722;-78
2022/09/09 15:38:43;;;;;;;2.90;0.95;;;;;;;18.58;70.04;100141.81;5070114;28;20070;-77
2022/09/09 15:41:48;;;;;;;4.45;1.20;;;;;;;18.76;73.17;100141.09;5067805;28;20051;-78
2022/09/09 15:44:52;;;;;;;5.10;0.90;;;;;;;18.96;73.26;100140.09;5069034;28;20046;-78
2022/09/09 15:47:56;;;;;;;3.85;0.80;;;;;;;19.08;72.99;100131.97;5070002;28;20074;-77
2022/09/09 15:51:04;;;;;;;4.15;0.90;;;;;;;19.14;73.15;100118.97;5070900;28;20090;-78
2022/09/09 15:54:09;;;;;;;9.52;1.38;;;;;;;18.97;74.17;100120.56;5069951;28;20067;-78
2022/09/09 15:57:13;;;;;;;6.32;0.80;;;;;;;18.91;75.62;100129.06;5070701;28;20051;-78
2022/09/09 16:00:16;;;;;;;4.32;0.68;;;;;;;19.02;74.96;100130.75;5070025;28;20048;-78
2022/09/09 16:03:20;;;;;;;7.70;1.15;;;;;;;19.06;73.25;100121.50;5069822;28;20446;-78
2022/09/09 16:06:54;;;;;;;4.15;1.02;;;;;;;18.78;74.63;100118.78;5070130;28;20502;-79
2022/09/09 16:09:57;;;;;;;4.10;1.15;;;;;;;18.80;73.75;100116.03;5070116;28;20144;-77
2022/09/09 16:13:00;;;;;;;6.60;1.25;;;;;;;18.75;77.50;100132.31;5070096;28;20051;-78
2022/09/09 16:16:07;;;;;;;3.90;0.80;;;;;;;18.61;72.67;100132.75;5070673;28;20197;-76
2022/09/09 16:19:12;;;;;;;4.13;0.82;;;;;;;18.44;72.05;100128.16;5070499;28;20055;-76